sensor_id;sensor_type;location;lat;lon;timestamp;P1;durP1;ratioP1;P2;durP2;ratioP2
13487;SDS011;6816;48.506;9.050;2023-11-19T00:01:22;3.23;;;1.90;;
13487;SDS011;6816;48.506;9.050;2023-11-19T00:04:25;3.30;;;2.27;;
13487;SDS011;6816;48.506;9.050;2023-11-19T00:07:25;3.63;;;2.20;;
13487;SDS011;6816;48.506;9.050;2023-11-19T00:10:26;3.47;;;2.40;;
13487;SDS011;6816;48.506;9.050;2023-11-19T00:13:26;2.83;;;2.03;;
13487;SDS011;6816;48.506;9.050;2023-11-19T00:16:27;4.17;;;2.30;;
13487;SDS011;6816;48.506;9.050;2023-11-19T00:19:28;2.53;;;1.83;;
13487;SDS011;6816;48.506;9.050;2023-11-19T00:22:28;2.67;;;2.10;;
13487;SDS011;6816;48.506;9.050;2023-11-19T00:25:29;2.87;;;2.40;;
13487;SDS011;6816;48.506;9.050;2023-11-19T00:28:30;3.17;;;1.90;;
13487;SDS011;6816;48.506;9.050;2023-11-19T00:31:30;3.03;;;2.07;;
13487;SDS011;6816;48.506;9.050;2023-11-19T00:34:31;2.30;;;1.90;;
13487;SDS011;6816;48.506;9.050;2023-11-19T00:37:31;2.63;;;1.97;;
13487;SDS011;6816;48.506;9.050;2023-11-19T00:40:32;3.73;;;1.97;;
13487;SDS011;6816;48.506;9.050;2023-11-19T00:43:33;3.40;;;1.90;;
13487;SDS011;6816;48.506;9.050;2023-11-19T00:46:33;3.20;;;2.10;;
13487;SDS011;6816;48.506;9.050;2023-11-19T00:49:34;2.10;;;1.30;;
13487;SDS011;6816;48.506;9.050;2023-11-19T00:52:35;1.93;;;1.70;;
13487;SDS011;6816;48.506;9.050;2023-11-19T00:55:37;2.27;;;1.90;;
13487;SDS011;6816;48.506;9.050;2023-11-19T00:58:37;3.87;;;2.23;;
13487;SDS011;6816;48.506;9.050;2023-11-19T01:01:38;3.43;;;2.47;;
13487;SDS011;6816;48.506;9.050;2023-11-19T01:04:39;2.27;;;1.97;;
13487;SDS011;6816;48.506;9.050;2023-11-19T01:07:39;3.60;;;2.13;;
13487;SDS011;6816;48.506;9.050;2023-11-19T01:10:40;2.17;;;1.83;;
13487;SDS011;6816;48.506;9.050;2023-11-19T01:13:40;3.47;;;1.80;;
13487;SDS011;6816;48.506;9.050;2023-11-19T01:16:41;2.60;;;1.87;;
13487;SDS011;6816;48.506;9.050;2023-11-19T01:19:42;2.03;;;1.83;;
13487;SDS011;6816;48.506;9.050;2023-11-19T01:22:43;2.40;;;1.83;;
13487;SDS011;6816;48.506;9.050;2023-11-19T01:25:44;2.53;;;1.87;;
13487;SDS011;6816;48.506;9.050;2023-11-19T01:28:45;2.50;;;1.77;;
13487;SDS011;6816;48.506;9.050;2023-11-19T01:31:46;1.90;;;1.43;;
13487;SDS011;6816;48.506;9.050;2023-11-19T01:34:47;2.33;;;1.77;;
13487;SDS011;6816;48.506;9.050;2023-11-19T01:37:48;3.47;;;1.73;;
13487;SDS011;6816;48.506;9.050;2023-11-19T01:40:50;1.53;;;1.43;;
13487;SDS011;6816;48.506;9.050;2023-11-19T01:43:56;2.40;;;1.23;;
13487;SDS011;6816;48.506;9.050;2023-11-19T01:46:57;1.63;;;1.50;;
13487;SDS011;6816;48.506;9.050;2023-11-19T01:49:58;1.40;;;1.17;;
13487;SDS011;6816;48.506;9.050;2023-11-19T01:52:59;3.60;;;1.20;;
13487;SDS011;6816;48.506;9.050;2023-11-19T01:56:00;0.90;;;0.90;;
13487;SDS011;6816;48.506;9.050;2023-11-19T01:59:02;2.00;;;1.13;;
13487;SDS011;6816;48.506;9.050;2023-11-19T02:02:04;1.80;;;1.00;;
13487;SDS011;6816;48.506;9.050;2023-11-19T02:05:06;0.90;;;0.80;;
13487;SDS011;6816;48.506;9.050;2023-11-19T02:08:07;3.20;;;1.00;;
13487;SDS011;6816;48.506;9.050;2023-11-19T02:11:08;0.90;;;0.77;;
13487;SDS011;6816;48.506;9.050;2023-11-19T02:14:09;3.03;;;0.97;;
13487;SDS011;6816;48.506;9.050;2023-11-19T02:17:27;2.73;;;0.60;;
13487;SDS011;6816;48.506;9.050;2023-11-19T02:20:28;0.80;;;0.60;;
13487;SDS011;6816;48.506;9.050;2023-11-19T02:23:28;0.70;;;0.70;;
13487;SDS011;6816;48.506;9.050;2023-11-19T02:26:39;0.80;;;0.60;;
13487;SDS011;6816;48.506;9.050;2023-11-19T02:29:44;0.90;;;0.60;;
13487;SDS011;6816;48.506;9.050;2023-11-19T02:32:45;0.80;;;0.80;;
13487;SDS011;6816;48.506;9.050;2023-11-19T02:35:46;0.70;;;0.63;;
13487;SDS011;6816;48.506;9.050;2023-11-19T02:38:46;1.37;;;0.73;;
13487;SDS011;6816;48.506;9.050;2023-11-19T02:41:47;1.10;;;0.80;;
13487;SDS011;6816;48.506;9.050;2023-11-19T02:44:50;1.23;;;0.70;;
13487;SDS011;6816;48.506;9.050;2023-11-19T02:47:51;0.93;;;0.60;;
13487;SDS011;6816;48.506;9.050;2023-11-19T02:50:53;0.90;;;0.60;;
13487;SDS011;6816;48.506;9.050;2023-11-19T02:53:53;0.53;;;0.50;;
13487;SDS011;6816;48.506;9.050;2023-11-19T02:56:54;0.50;;;0.50;;
13487;SDS011;6816;48.506;9.050;2023-11-19T02:59:59;0.97;;;0.70;;
13487;SDS011;6816;48.506;9.050;2023-11-19T03:03:00;0.60;;;0.50;;
13487;SDS011;6816;48.506;9.050;2023-11-19T03:06:10;0.50;;;0.50;;
13487;SDS011;6816;48.506;9.050;2023-11-19T03:09:11;0.40;;;0.40;;
13487;SDS011;6816;48.506;9.050;2023-11-19T03:12:11;0.63;;;0.50;;
13487;SDS011;6816;48.506;9.050;2023-11-19T03:15:12;0.57;;;0.47;;
13487;SDS011;6816;48.506;9.050;2023-11-19T03:18:13;0.60;;;0.40;;
13487;SDS011;6816;48.506;9.050;2023-11-19T03:21:13;3.90;;;0.50;;
13487;SDS011;6816;48.506;9.050;2023-11-19T03:24:14;0.50;;;0.40;;
13487;SDS011;6816;48.506;9.050;2023-11-19T03:27:15;0.50;;;0.40;;
13487;SDS011;6816;48.506;9.050;2023-11-19T03:30:16;1.33;;;0.40;;
13487;SDS011;6816;48.506;9.050;2023-11-19T03:33:17;0.50;;;0.40;;
13487;SDS011;6816;48.506;9.050;2023-11-19T03:36:18;2.40;;;0.60;;
13487;SDS011;6816;48.506;9.050;2023-11-19T03:39:18;0.43;;;0.30;;
13487;SDS011;6816;48.506;9.050;2023-11-19T03:42:19;0.40;;;0.30;;
13487;SDS011;6816;48.506;9.050;2023-11-19T03:45:21;0.33;;;0.30;;
13487;SDS011;6816;48.506;9.050;2023-11-19T03:48:22;0.63;;;0.40;;
13487;SDS011;6816;48.506;9.050;2023-11-19T03:51:22;0.27;;;0.23;;
13487;SDS011;6816;48.506;9.050;2023-11-19T03:54:23;0.33;;;0.33;;
13487;SDS011;6816;48.506;9.050;2023-11-19T03:57:24;0.40;;;0.30;;
13487;SDS011;6816;48.506;9.050;2023-11-19T04:00:25;0.30;;;0.20;;
13487;SDS011;6816;48.506;9.050;2023-11-19T04:03:25;0.20;;;0.20;;
13487;SDS011;6816;48.506;9.050;2023-11-19T04:06:26;0.60;;;0.30;;
13487;SDS011;6816;48.506;9.050;2023-11-19T04:09:26;1.30;;;0.37;;
13487;SDS011;6816;48.506;9.050;2023-11-19T04:12:27;1.07;;;0.27;;
13487;SDS011;6816;48.506;9.050;2023-11-19T04:15:28;1.83;;;0.40;;
13487;SDS011;6816;48.506;9.050;2023-11-19T04:18:29;0.40;;;0.30;;
13487;SDS011;6816;48.506;9.050;2023-11-19T04:21:29;0.37;;;0.33;;
13487;SDS011;6816;48.506;9.050;2023-11-19T04:24:30;0.47;;;0.20;;
13487;SDS011;6816;48.506;9.050;2023-11-19T04:27:31;1.33;;;0.30;;
13487;SDS011;6816;48.506;9.050;2023-11-19T04:30:31;0.27;;;0.27;;
13487;SDS011;6816;48.506;9.050;2023-11-19T04:33:32;0.30;;;0.30;;
13487;SDS011;6816;48.506;9.050;2023-11-19T04:36:33;0.97;;;0.40;;
13487;SDS011;6816;48.506;9.050;2023-11-19T04:39:34;0.30;;;0.10;;
13487;SDS011;6816;48.506;9.050;2023-11-19T04:42:34;0.27;;;0.27;;
13487;SDS011;6816;48.506;9.050;2023-11-19T04:45:35;0.40;;;0.30;;
13487;SDS011;6816;48.506;9.050;2023-11-19T04:48:36;0.70;;;0.30;;
13487;SDS011;6816;48.506;9.050;2023-11-19T04:51:43;0.30;;;0.30;;
13487;SDS011;6816;48.506;9.050;2023-11-19T04:54:47;0.30;;;0.20;;
13487;SDS011;6816;48.506;9.050;2023-11-19T04:57:48;0.20;;;0.20;;
13487;SDS011;6816;48.506;9.050;2023-11-19T05:00:48;0.23;;;0.13;;
13487;SDS011;6816;48.506;9.050;2023-11-19T05:03:49;0.30;;;0.30;;
13487;SDS011;6816;48.506;9.050;2023-11-19T05:06:51;0.20;;;0.20;;
13487;SDS011;6816;48.506;9.050;2023-11-19T05:09:51;0.10;;;0.10;;
13487;SDS011;6816;48.506;9.050;2023-11-19T05:12:52;0.43;;;0.20;;
13487;SDS011;6816;48.506;9.050;2023-11-19T05:15:52;1.13;;;0.20;;
13487;SDS011;6816;48.506;9.050;2023-11-19T05:18:53;0.20;;;0.20;;
13487;SDS011;6816;48.506;9.050;2023-11-19T05:21:54;0.50;;;0.20;;
13487;SDS011;6816;48.506;9.050;2023-11-19T05:24:54;0.23;;;0.20;;
13487;SDS011;6816;48.506;9.050;2023-11-19T05:27:56;0.30;;;0.20;;
13487;SDS011;6816;48.506;9.050;2023-11-19T05:30:56;0.97;;;0.13;;
13487;SDS011;6816;48.506;9.050;2023-11-19T05:33:57;0.10;;;0.10;;
13487;SDS011;6816;48.506;9.050;2023-11-19T05:36:58;0.10;;;0.10;;
13487;SDS011;6816;48.506;9.050;2023-11-19T05:39:58;0.20;;;0.10;;
13487;SDS011;6816;48.506;9.050;2023-11-19T05:43:00;0.30;;;0.10;;
13487;SDS011;6816;48.506;9.050;2023-11-19T05:46:00;0.23;;;0.10;;
13487;SDS011;6816;48.506;9.050;2023-11-19T05:49:01;0.20;;;0.10;;
13487;SDS011;6816;48.506;9.050;2023-11-19T05:52:03;0.20;;;0.10;;
13487;SDS011;6816;48.506;9.050;2023-11-19T05:55:07;1.47;;;0.10;;
13487;SDS011;6816;48.506;9.050;2023-11-19T05:58:10;0.30;;;0.10;;
13487;SDS011;6816;48.506;9.050;2023-11-19T06:01:12;0.10;;;0.10;;
13487;SDS011;6816;48.506;9.050;2023-11-19T06:04:12;0.10;;;0.10;;
13487;SDS011;6816;48.506;9.050;2023-11-19T06:07:13;0.10;;;0.03;;
13487;SDS011;6816;48.506;9.050;2023-11-19T06:10:15;0.10;;;0.03;;
13487;SDS011;6816;48.506;9.050;2023-11-19T06:13:16;0.53;;;0.10;;
13487;SDS011;6816;48.506;9.050;2023-11-19T06:16:17;3.20;;;0.70;;
13487;SDS011;6816;48.506;9.050;2023-11-19T06:19:18;0.30;;;0.10;;
13487;SDS011;6816;48.506;9.050;2023-11-19T06:22:18;0.73;;;0.10;;
13487;SDS011;6816;48.506;9.050;2023-11-19T06:25:19;0.20;;;0.17;;
13487;SDS011;6816;48.506;9.050;2023-11-19T06:28:20;3.10;;;0.30;;
13487;SDS011;6816;48.506;9.050;2023-11-19T06:31:20;0.40;;;0.20;;
13487;SDS011;6816;48.506;9.050;2023-11-19T06:34:21;0.37;;;0.10;;
13487;SDS011;6816;48.506;9.050;2023-11-19T06:37:22;0.10;;;0.10;;
13487;SDS011;6816;48.506;9.050;2023-11-19T06:40:23;0.87;;;0.20;;
13487;SDS011;6816;48.506;9.050;2023-11-19T06:43:24;0.10;;;0.10;;
13487;SDS011;6816;48.506;9.050;2023-11-19T06:46:25;0.97;;;0.20;;
13487;SDS011;6816;48.506;9.050;2023-11-19T06:49:26;0.30;;;0.20;;
13487;SDS011;6816;48.506;9.050;2023-11-19T06:52:26;0.10;;;0.10;;
13487;SDS011;6816;48.506;9.050;2023-11-19T06:55:27;1.77;;;0.30;;
13487;SDS011;6816;48.506;9.050;2023-11-19T06:58:28;0.20;;;0.20;;
13487;SDS011;6816;48.506;9.050;2023-11-19T07:01:28;0.40;;;0.33;;
13487;SDS011;6816;48.506;9.050;2023-11-19T07:04:35;0.20;;;0.17;;
13487;SDS011;6816;48.506;9.050;2023-11-19T07:07:35;2.73;;;0.20;;
13487;SDS011;6816;48.506;9.050;2023-11-19T07:10:36;0.70;;;0.30;;
13487;SDS011;6816;48.506;9.050;2023-11-19T07:13:37;0.23;;;0.20;;
13487;SDS011;6816;48.506;9.050;2023-11-19T07:16:37;0.50;;;0.33;;
13487;SDS011;6816;48.506;9.050;2023-11-19T07:19:38;0.70;;;0.40;;
13487;SDS011;6816;48.506;9.050;2023-11-19T07:22:39;0.37;;;0.37;;
13487;SDS011;6816;48.506;9.050;2023-11-19T07:25:40;0.40;;;0.40;;
13487;SDS011;6816;48.506;9.050;2023-11-19T07:28:41;0.60;;;0.50;;
13487;SDS011;6816;48.506;9.050;2023-11-19T07:31:42;0.60;;;0.40;;
13487;SDS011;6816;48.506;9.050;2023-11-19T07:34:44;0.53;;;0.50;;
13487;SDS011;6816;48.506;9.050;2023-11-19T07:37:45;0.30;;;0.30;;
13487;SDS011;6816;48.506;9.050;2023-11-19T07:40:47;0.50;;;0.30;;
13487;SDS011;6816;48.506;9.050;2023-11-19T07:43:48;0.47;;;0.20;;
13487;SDS011;6816;48.506;9.050;2023-11-19T07:46:50;0.40;;;0.20;;
13487;SDS011;6816;48.506;9.050;2023-11-19T07:49:51;0.40;;;0.30;;
13487;SDS011;6816;48.506;9.050;2023-11-19T07:52:52;0.50;;;0.20;;
13487;SDS011;6816;48.506;9.050;2023-11-19T07:55:53;0.17;;;0.10;;
13487;SDS011;6816;48.506;9.050;2023-11-19T07:58:54;0.00;;;0.00;;
13487;SDS011;6816;48.506;9.050;2023-11-19T08:01:54;0.40;;;0.10;;
13487;SDS011;6816;48.506;9.050;2023-11-19T08:04:55;0.10;;;0.10;;
13487;SDS011;6816;48.506;9.050;2023-11-19T08:07:55;0.17;;;0.17;;
13487;SDS011;6816;48.506;9.050;2023-11-19T08:10:56;0.10;;;0.10;;
13487;SDS011;6816;48.506;9.050;2023-11-19T08:13:57;0.20;;;0.17;;
13487;SDS011;6816;48.506;9.050;2023-11-19T08:16:57;0.10;;;0.10;;
13487;SDS011;6816;48.506;9.050;2023-11-19T08:19:58;0.20;;;0.17;;
13487;SDS011;6816;48.506;9.050;2023-11-19T08:23:02;1.10;;;0.30;;
13487;SDS011;6816;48.506;9.050;2023-11-19T08:26:04;0.80;;;0.17;;
13487;SDS011;6816;48.506;9.050;2023-11-19T08:29:05;0.10;;;0.10;;
13487;SDS011;6816;48.506;9.050;2023-11-19T08:32:06;0.20;;;0.10;;
13487;SDS011;6816;48.506;9.050;2023-11-19T08:35:07;0.13;;;0.13;;
13487;SDS011;6816;48.506;9.050;2023-11-19T08:38:08;0.20;;;0.17;;
13487;SDS011;6816;48.506;9.050;2023-11-19T08:41:08;0.47;;;0.20;;
13487;SDS011;6816;48.506;9.050;2023-11-19T08:44:10;0.67;;;0.10;;
13487;SDS011;6816;48.506;9.050;2023-11-19T08:47:11;0.47;;;0.20;;
13487;SDS011;6816;48.506;9.050;2023-11-19T08:50:12;1.27;;;0.20;;
13487;SDS011;6816;48.506;9.050;2023-11-19T08:53:13;0.30;;;0.30;;
13487;SDS011;6816;48.506;9.050;2023-11-19T08:56:13;1.10;;;0.30;;
13487;SDS011;6816;48.506;9.050;2023-11-19T08:59:14;4.43;;;0.30;;
13487;SDS011;6816;48.506;9.050;2023-11-19T09:02:15;1.20;;;0.20;;
13487;SDS011;6816;48.506;9.050;2023-11-19T09:05:16;0.47;;;0.20;;
13487;SDS011;6816;48.506;9.050;2023-11-19T09:08:17;1.37;;;0.30;;
13487;SDS011;6816;48.506;9.050;2023-11-19T09:11:17;0.20;;;0.10;;
13487;SDS011;6816;48.506;9.050;2023-11-19T09:14:18;0.70;;;0.20;;
13487;SDS011;6816;48.506;9.050;2023-11-19T09:17:21;0.20;;;0.20;;
13487;SDS011;6816;48.506;9.050;2023-11-19T09:20:21;0.20;;;0.20;;
13487;SDS011;6816;48.506;9.050;2023-11-19T09:23:22;0.20;;;0.20;;
13487;SDS011;6816;48.506;9.050;2023-11-19T09:26:22;0.70;;;0.20;;
13487;SDS011;6816;48.506;9.050;2023-11-19T09:29:23;0.37;;;0.20;;
13487;SDS011;6816;48.506;9.050;2023-11-19T09:32:24;0.37;;;0.20;;
13487;SDS011;6816;48.506;9.050;2023-11-19T09:35:25;0.57;;;0.20;;
13487;SDS011;6816;48.506;9.050;2023-11-19T09:38:25;0.30;;;0.30;;
13487;SDS011;6816;48.506;9.050;2023-11-19T09:41:26;0.30;;;0.20;;
13487;SDS011;6816;48.506;9.050;2023-11-19T09:44:27;0.20;;;0.20;;
13487;SDS011;6816;48.506;9.050;2023-11-19T09:47:29;1.33;;;0.20;;
13487;SDS011;6816;48.506;9.050;2023-11-19T09:50:30;0.20;;;0.20;;
13487;SDS011;6816;48.506;9.050;2023-11-19T09:53:31;1.53;;;0.30;;
13487;SDS011;6816;48.506;9.050;2023-11-19T09:56:33;0.20;;;0.20;;
13487;SDS011;6816;48.506;9.050;2023-11-19T09:59:37;1.60;;;0.20;;
13487;SDS011;6816;48.506;9.050;2023-11-19T10:02:39;1.77;;;0.27;;
13487;SDS011;6816;48.506;9.050;2023-11-19T10:05:40;0.60;;;0.20;;
13487;SDS011;6816;48.506;9.050;2023-11-19T10:08:41;3.10;;;0.30;;
13487;SDS011;6816;48.506;9.050;2023-11-19T10:11:43;0.50;;;0.40;;
13487;SDS011;6816;48.506;9.050;2023-11-19T10:14:43;1.47;;;0.40;;
13487;SDS011;6816;48.506;9.050;2023-11-19T10:17:45;0.20;;;0.20;;
13487;SDS011;6816;48.506;9.050;2023-11-19T10:20:46;0.20;;;0.20;;
13487;SDS011;6816;48.506;9.050;2023-11-19T10:23:50;0.60;;;0.33;;
13487;SDS011;6816;48.506;9.050;2023-11-19T10:26:57;1.17;;;0.20;;
13487;SDS011;6816;48.506;9.050;2023-11-19T10:30:00;0.40;;;0.20;;
13487;SDS011;6816;48.506;9.050;2023-11-19T10:33:08;1.33;;;0.20;;
13487;SDS011;6816;48.506;9.050;2023-11-19T10:36:10;0.53;;;0.37;;
13487;SDS011;6816;48.506;9.050;2023-11-19T10:39:12;0.33;;;0.30;;
13487;SDS011;6816;48.506;9.050;2023-11-19T10:42:16;1.83;;;0.50;;
13487;SDS011;6816;48.506;9.050;2023-11-19T10:45:21;1.70;;;0.40;;
13487;SDS011;6816;48.506;9.050;2023-11-19T10:48:23;0.60;;;0.40;;
13487;SDS011;6816;48.506;9.050;2023-11-19T10:51:25;0.60;;;0.40;;
13487;SDS011;6816;48.506;9.050;2023-11-19T10:54:26;0.60;;;0.37;;
13487;SDS011;6816;48.506;9.050;2023-11-19T10:57:26;0.40;;;0.30;;
13487;SDS011;6816;48.506;9.050;2023-11-19T11:00:54;0.60;;;0.30;;
13487;SDS011;6816;48.506;9.050;2023-11-19T11:03:57;0.20;;;0.20;;
13487;SDS011;6816;48.506;9.050;2023-11-19T11:07:00;0.20;;;0.20;;
13487;SDS011;6816;48.506;9.050;2023-11-19T11:10:02;0.47;;;0.20;;
13487;SDS011;6816;48.506;9.050;2023-11-19T11:13:06;0.70;;;0.20;;
13487;SDS011;6816;48.506;9.050;2023-11-19T11:16:06;0.90;;;0.30;;
13487;SDS011;6816;48.506;9.050;2023-11-19T11:19:13;0.60;;;0.20;;
13487;SDS011;6816;48.506;9.050;2023-11-19T11:22:16;0.20;;;0.13;;
13487;SDS011;6816;48.506;9.050;2023-11-19T11:28:59;0.20;;;0.20;;
13487;SDS011;6816;48.506;9.050;2023-11-19T11:32:10;0.33;;;0.20;;
13487;SDS011;6816;48.506;9.050;2023-11-19T11:39:01;0.20;;;0.20;;
13487;SDS011;6816;48.506;9.050;2023-11-19T11:45:17;0.10;;;0.10;;
13487;SDS011;6816;48.506;9.050;2023-11-19T11:48:20;0.23;;;0.23;;
13487;SDS011;6816;48.506;9.050;2023-11-19T11:54:45;0.40;;;0.20;;
13487;SDS011;6816;48.506;9.050;2023-11-19T11:57:46;0.57;;;0.20;;
13487;SDS011;6816;48.506;9.050;2023-11-19T12:00:48;0.30;;;0.30;;
13487;SDS011;6816;48.506;9.050;2023-11-19T12:03:49;0.50;;;0.30;;
13487;SDS011;6816;48.506;9.050;2023-11-19T12:07:07;0.20;;;0.20;;
13487;SDS011;6816;48.506;9.050;2023-11-19T12:10:12;0.17;;;0.17;;
13487;SDS011;6816;48.506;9.050;2023-11-19T12:13:13;0.30;;;0.20;;
13487;SDS011;6816;48.506;9.050;2023-11-19T12:16:14;1.80;;;0.30;;
13487;SDS011;6816;48.506;9.050;2023-11-19T12:19:15;0.40;;;0.20;;
13487;SDS011;6816;48.506;9.050;2023-11-19T12:22:18;0.20;;;0.20;;
13487;SDS011;6816;48.506;9.050;2023-11-19T12:25:20;0.60;;;0.40;;
13487;SDS011;6816;48.506;9.050;2023-11-19T12:28:21;0.53;;;0.40;;
13487;SDS011;6816;48.506;9.050;2023-11-19T12:31:24;0.23;;;0.20;;
13487;SDS011;6816;48.506;9.050;2023-11-19T12:34:25;0.30;;;0.30;;
13487;SDS011;6816;48.506;9.050;2023-11-19T12:37:26;0.60;;;0.20;;
13487;SDS011;6816;48.506;9.050;2023-11-19T12:40:28;0.20;;;0.20;;
13487;SDS011;6816;48.506;9.050;2023-11-19T12:43:29;0.33;;;0.30;;
13487;SDS011;6816;48.506;9.050;2023-11-19T12:46:29;0.80;;;0.30;;
13487;SDS011;6816;48.506;9.050;2023-11-19T12:49:30;0.30;;;0.30;;
13487;SDS011;6816;48.506;9.050;2023-11-19T12:52:31;0.70;;;0.43;;
13487;SDS011;6816;48.506;9.050;2023-11-19T12:55:31;0.47;;;0.37;;
13487;SDS011;6816;48.506;9.050;2023-11-19T12:58:33;1.50;;;0.23;;
13487;SDS011;6816;48.506;9.050;2023-11-19T13:01:34;4.13;;;0.73;;
13487;SDS011;6816;48.506;9.050;2023-11-19T13:04:35;3.43;;;0.40;;
13487;SDS011;6816;48.506;9.050;2023-11-19T13:07:35;0.80;;;0.50;;
13487;SDS011;6816;48.506;9.050;2023-11-19T13:13:57;1.10;;;0.53;;
13487;SDS011;6816;48.506;9.050;2023-11-19T13:17:02;0.83;;;0.40;;
13487;SDS011;6816;48.506;9.050;2023-11-19T13:20:06;0.97;;;0.40;;
13487;SDS011;6816;48.506;9.050;2023-11-19T13:23:06;0.50;;;0.40;;
13487;SDS011;6816;48.506;9.050;2023-11-19T13:26:07;1.07;;;0.40;;
13487;SDS011;6816;48.506;9.050;2023-11-19T13:29:08;0.20;;;0.20;;
13487;SDS011;6816;48.506;9.050;2023-11-19T13:32:10;1.40;;;0.43;;
13487;SDS011;6816;48.506;9.050;2023-11-19T13:35:10;0.30;;;0.30;;
13487;SDS011;6816;48.506;9.050;2023-11-19T13:38:12;0.97;;;0.60;;
13487;SDS011;6816;48.506;9.050;2023-11-19T13:41:13;1.00;;;0.30;;
13487;SDS011;6816;48.506;9.050;2023-11-19T13:44:13;1.27;;;0.50;;
13487;SDS011;6816;48.506;9.050;2023-11-19T13:47:14;0.93;;;0.30;;
13487;SDS011;6816;48.506;9.050;2023-11-19T13:50:15;0.50;;;0.40;;
13487;SDS011;6816;48.506;9.050;2023-11-19T13:53:20;0.90;;;0.50;;
13487;SDS011;6816;48.506;9.050;2023-11-19T13:56:21;1.07;;;0.40;;
13487;SDS011;6816;48.506;9.050;2023-11-19T13:59:21;0.50;;;0.40;;
13487;SDS011;6816;48.506;9.050;2023-11-19T14:02:22;0.77;;;0.40;;
13487;SDS011;6816;48.506;9.050;2023-11-19T14:05:22;0.30;;;0.30;;
13487;SDS011;6816;48.506;9.050;2023-11-19T14:08:23;0.30;;;0.30;;
13487;SDS011;6816;48.506;9.050;2023-11-19T14:11:24;0.40;;;0.30;;
13487;SDS011;6816;48.506;9.050;2023-11-19T14:14:25;0.60;;;0.30;;
13487;SDS011;6816;48.506;9.050;2023-11-19T14:17:26;0.50;;;0.20;;
13487;SDS011;6816;48.506;9.050;2023-11-19T14:20:26;0.47;;;0.30;;
13487;SDS011;6816;48.506;9.050;2023-11-19T14:23:27;1.30;;;0.30;;
13487;SDS011;6816;48.506;9.050;2023-11-19T14:26:28;0.57;;;0.30;;
13487;SDS011;6816;48.506;9.050;2023-11-19T14:29:29;0.43;;;0.40;;
13487;SDS011;6816;48.506;9.050;2023-11-19T14:32:30;0.20;;;0.20;;
13487;SDS011;6816;48.506;9.050;2023-11-19T14:35:31;0.30;;;0.27;;
13487;SDS011;6816;48.506;9.050;2023-11-19T14:38:33;1.30;;;0.40;;
13487;SDS011;6816;48.506;9.050;2023-11-19T14:41:34;0.50;;;0.30;;
13487;SDS011;6816;48.506;9.050;2023-11-19T14:44:34;0.50;;;0.30;;
13487;SDS011;6816;48.506;9.050;2023-11-19T14:47:36;0.93;;;0.40;;
13487;SDS011;6816;48.506;9.050;2023-11-19T14:50:36;0.43;;;0.40;;
13487;SDS011;6816;48.506;9.050;2023-11-19T14:53:37;0.70;;;0.40;;
13487;SDS011;6816;48.506;9.050;2023-11-19T14:56:38;0.50;;;0.50;;
13487;SDS011;6816;48.506;9.050;2023-11-19T14:59:39;0.40;;;0.40;;
13487;SDS011;6816;48.506;9.050;2023-11-19T15:02:40;0.40;;;0.40;;
13487;SDS011;6816;48.506;9.050;2023-11-19T15:05:41;0.93;;;0.50;;
13487;SDS011;6816;48.506;9.050;2023-11-19T15:08:45;0.30;;;0.30;;
13487;SDS011;6816;48.506;9.050;2023-11-19T15:11:45;0.77;;;0.30;;
13487;SDS011;6816;48.506;9.050;2023-11-19T15:14:46;0.70;;;0.37;;
13487;SDS011;6816;48.506;9.050;2023-11-19T15:17:47;0.37;;;0.30;;
13487;SDS011;6816;48.506;9.050;2023-11-19T15:20:47;0.20;;;0.20;;
13487;SDS011;6816;48.506;9.050;2023-11-19T15:23:48;0.67;;;0.30;;
13487;SDS011;6816;48.506;9.050;2023-11-19T15:26:49;0.50;;;0.30;;
13487;SDS011;6816;48.506;9.050;2023-11-19T15:29:49;0.30;;;0.30;;
13487;SDS011;6816;48.506;9.050;2023-11-19T15:32:50;1.13;;;0.40;;
13487;SDS011;6816;48.506;9.050;2023-11-19T15:35:51;2.10;;;0.40;;
13487;SDS011;6816;48.506;9.050;2023-11-19T15:39:12;0.93;;;0.70;;
13487;SDS011;6816;48.506;9.050;2023-11-19T15:42:13;1.70;;;0.40;;
13487;SDS011;6816;48.506;9.050;2023-11-19T15:45:14;2.00;;;0.40;;
13487;SDS011;6816;48.506;9.050;2023-11-19T15:48:16;0.87;;;0.40;;
13487;SDS011;6816;48.506;9.050;2023-11-19T15:51:18;1.80;;;0.50;;
13487;SDS011;6816;48.506;9.050;2023-11-19T15:54:18;1.30;;;0.40;;
13487;SDS011;6816;48.506;9.050;2023-11-19T15:57:19;0.50;;;0.50;;
13487;SDS011;6816;48.506;9.050;2023-11-19T16:00:20;1.47;;;0.90;;
13487;SDS011;6816;48.506;9.050;2023-11-19T16:03:21;1.60;;;1.20;;
13487;SDS011;6816;48.506;9.050;2023-11-19T16:06:22;1.97;;;1.30;;
13487;SDS011;6816;48.506;9.050;2023-11-19T16:09:23;1.60;;;0.80;;
13487;SDS011;6816;48.506;9.050;2023-11-19T16:12:23;1.20;;;0.60;;
13487;SDS011;6816;48.506;9.050;2023-11-19T16:15:25;1.00;;;0.80;;
13487;SDS011;6816;48.506;9.050;2023-11-19T16:18:25;1.23;;;0.63;;
13487;SDS011;6816;48.506;9.050;2023-11-19T16:21:27;1.17;;;0.53;;
13487;SDS011;6816;48.506;9.050;2023-11-19T16:24:28;0.50;;;0.30;;
13487;SDS011;6816;48.506;9.050;2023-11-19T16:27:29;0.30;;;0.30;;
13487;SDS011;6816;48.506;9.050;2023-11-19T16:30:29;0.87;;;0.50;;
13487;SDS011;6816;48.506;9.050;2023-11-19T16:33:30;0.50;;;0.50;;
13487;SDS011;6816;48.506;9.050;2023-11-19T16:36:31;1.10;;;0.73;;
13487;SDS011;6816;48.506;9.050;2023-11-19T16:39:31;1.13;;;0.60;;
13487;SDS011;6816;48.506;9.050;2023-11-19T16:42:32;1.13;;;0.43;;
13487;SDS011;6816;48.506;9.050;2023-11-19T16:45:32;1.23;;;0.60;;
13487;SDS011;6816;48.506;9.050;2023-11-19T16:48:33;1.00;;;0.70;;
13487;SDS011;6816;48.506;9.050;2023-11-19T16:51:34;0.63;;;0.50;;
13487;SDS011;6816;48.506;9.050;2023-11-19T16:54:34;1.63;;;0.70;;
13487;SDS011;6816;48.506;9.050;2023-11-19T16:57:35;1.07;;;0.60;;
13487;SDS011;6816;48.506;9.050;2023-11-19T17:00:35;1.27;;;0.50;;
13487;SDS011;6816;48.506;9.050;2023-11-19T17:03:42;2.40;;;1.00;;
13487;SDS011;6816;48.506;9.050;2023-11-19T17:06:42;1.70;;;1.00;;
13487;SDS011;6816;48.506;9.050;2023-11-19T17:09:47;1.10;;;0.90;;
13487;SDS011;6816;48.506;9.050;2023-11-19T17:12:47;1.13;;;0.80;;
13487;SDS011;6816;48.506;9.050;2023-11-19T17:15:48;1.27;;;0.87;;
13487;SDS011;6816;48.506;9.050;2023-11-19T17:18:48;3.00;;;1.17;;
13487;SDS011;6816;48.506;9.050;2023-11-19T17:21:49;1.63;;;1.00;;
13487;SDS011;6816;48.506;9.050;2023-11-19T17:24:49;1.80;;;1.10;;
13487;SDS011;6816;48.506;9.050;2023-11-19T17:27:50;2.53;;;1.30;;
13487;SDS011;6816;48.506;9.050;2023-11-19T17:30:51;1.60;;;1.17;;
13487;SDS011;6816;48.506;9.050;2023-11-19T17:33:51;1.73;;;0.80;;
13487;SDS011;6816;48.506;9.050;2023-11-19T17:36:52;2.13;;;1.10;;
13487;SDS011;6816;48.506;9.050;2023-11-19T17:39:53;2.33;;;1.30;;
13487;SDS011;6816;48.506;9.050;2023-11-19T17:42:53;3.13;;;1.00;;
13487;SDS011;6816;48.506;9.050;2023-11-19T17:45:54;1.73;;;1.40;;
13487;SDS011;6816;48.506;9.050;2023-11-19T17:48:59;2.50;;;1.33;;
13487;SDS011;6816;48.506;9.050;2023-11-19T17:52:00;2.40;;;1.40;;
13487;SDS011;6816;48.506;9.050;2023-11-19T17:55:01;2.60;;;1.63;;
13487;SDS011;6816;48.506;9.050;2023-11-19T17:58:04;1.30;;;1.20;;
13487;SDS011;6816;48.506;9.050;2023-11-19T18:01:05;2.13;;;1.33;;
13487;SDS011;6816;48.506;9.050;2023-11-19T18:04:06;3.37;;;1.70;;
13487;SDS011;6816;48.506;9.050;2023-11-19T18:07:06;2.97;;;1.53;;
13487;SDS011;6816;48.506;9.050;2023-11-19T18:10:09;2.97;;;1.50;;
13487;SDS011;6816;48.506;9.050;2023-11-19T18:13:14;2.17;;;1.50;;
13487;SDS011;6816;48.506;9.050;2023-11-19T18:16:19;3.40;;;1.43;;
13487;SDS011;6816;48.506;9.050;2023-11-19T18:19:20;2.20;;;1.80;;
13487;SDS011;6816;48.506;9.050;2023-11-19T18:22:20;2.93;;;1.40;;
13487;SDS011;6816;48.506;9.050;2023-11-19T18:25:21;2.40;;;1.60;;
13487;SDS011;6816;48.506;9.050;2023-11-19T18:28:22;2.30;;;1.93;;
13487;SDS011;6816;48.506;9.050;2023-11-19T18:31:24;2.33;;;1.83;;
13487;SDS011;6816;48.506;9.050;2023-11-19T18:34:25;3.53;;;2.37;;
13487;SDS011;6816;48.506;9.050;2023-11-19T18:37:27;3.10;;;1.93;;
13487;SDS011;6816;48.506;9.050;2023-11-19T18:40:27;3.73;;;2.40;;
13487;SDS011;6816;48.506;9.050;2023-11-19T18:43:28;4.33;;;2.10;;
13487;SDS011;6816;48.506;9.050;2023-11-19T18:46:28;2.53;;;1.90;;